Time;durP1;ratioP1;P1;durP2;ratioP2;P2;SDS_P1;SDS_P2;PMS_P1;PMS_P2;Temp;Humidity;BMP_temperature;BMP_pressure;BME280_temperature;BME280_humidity;BME280_pressure;Samples;Min_cycle;Max_cycle;Signal;HPM_P1;HPM_P2
2022/03/31 00:02:19;;;;;;;4.53;1.70;;;1.30;99.90;;;;;;4985831;28;20042;-62
2022/03/31 00:04:47;;;;;;;4.35;1.85;;;1.20;99.90;;;;;;4988412;28;20046;-62
2022/03/31 00:07:15;;;;;;;8.10;1.73;;;1.20;99.90;;;;;;4989891;28;20062;-62
2022/03/31 00:09:42;;;;;;;7.63;1.80;;;1.10;99.90;;;;;;4990780;28;20054;-62
2022/03/31 00:12:10;;;;;;;6.32;1.73;;;1.10;99.90;;;;;;4970165;28;20054;-62
2022/03/31 00:14:38;;;;;;;3.17;1.70;;;1.00;99.90;;;;;;4971048;28;20047;-62
2022/03/31 00:17:06;;;;;;;7.05;1.95;;;1.00;99.90;;;;;;4978556;28;20046;-62
2022/03/31 00:19:34;;;;;;;2.92;1.35;;;0.90;99.90;;;;;;4989261;28;20058;-62
2022/03/31 00:22:01;;;;;;;5.65;1.63;;;0.90;99.90;;;;;;4991168;28;20050;-62
2022/03/31 00:24:29;;;;;;;6.05;1.48;;;0.80;99.90;;;;;;4993306;28;20054;-73
2022/03/31 00:26:56;;;;;;;13.15;2.88;;;0.80;99.90;;;;;;4991274;28;20057;-67
2022/03/31 00:29:24;;;;;;;5.80;1.70;;;0.80;99.90;;;;;;4989449;28;20046;-68
2022/03/31 00:31:52;;;;;;;8.60;1.88;;;0.70;99.90;;;;;;4978258;28;20062;-66
2022/03/31 00:34:19;;;;;;;5.07;1.90;;;0.70;99.90;;;;;;4983015;28;20072;-64
2022/03/31 00:36:47;;;;;;;6.13;1.23;;;0.70;99.90;;;;;;4970862;28;20050;-62
2022/03/31 00:39:32;;;;;;;6.75;1.30;;;0.70;99.90;;;;;;4986820;28;20046;-63
2022/03/31 00:42:03;;;;;;;9.43;1.70;;;0.70;99.90;;;;;;4988684;28;20042;-62
2022/03/31 00:44:31;;;;;;;6.90;1.60;;;0.70;99.90;;;;;;4987894;28;20061;-62
2022/03/31 00:46:59;;;;;;;6.20;2.85;;;0.60;99.90;;;;;;4987478;28;20513;-62
2022/03/31 00:49:27;;;;;;;3.08;1.83;;;0.60;99.90;;;;;;4991944;28;20060;-62
2022/03/31 00:51:57;;;;;;;4.82;1.52;;;0.60;99.90;;;;;;4988811;28;20413;-63
2022/03/31 00:54:28;;;;;;;2.80;1.45;;;0.60;99.90;;;;;;5001235;28;20061;-62
2022/03/31 00:56:57;;;;;;;5.32;1.60;;;0.50;99.90;;;;;;4989665;28;20054;-62
2022/03/31 00:59:25;;;;;;;;;;;0.50;99.90;;;;;;5009712;28;20402;-62
2022/03/31 01:01:54;;;;;;;3.05;1.70;;;0.40;99.90;;;;;;5006404;28;19922;-62
2022/03/31 01:04:22;;;;;;;3.80;1.70;;;0.40;99.90;;;;;;5006227;28;20053;-62
2022/03/31 01:06:50;;;;;;;3.30;1.38;;;0.40;99.90;;;;;;4973164;28;20049;-62
2022/03/31 01:09:18;;;;;;;3.95;1.75;;;0.30;99.90;;;;;;4991014;28;20429;-64
2022/03/31 01:11:46;;;;;;;2.85;1.52;;;0.30;99.90;;;;;;5009070;28;20049;-65
2022/03/31 01:14:15;;;;;;;3.60;1.45;;;0.20;99.90;;;;;;5008409;28;20048;-62
2022/03/31 01:16:43;;;;;;;4.47;1.50;;;0.40;99.90;;;;;;4991588;28;20908;-62
2022/03/31 01:19:11;;;;;;;4.32;1.20;;;0.20;99.90;;;;;;4987309;28;20318;-62
2022/03/31 01:21:45;;;;;;;5.40;1.30;;;0.10;99.90;;;;;;4980381;28;20054;-63
2022/03/31 01:24:14;;;;;;;2.15;1.33;;;0.10;99.90;;;;;;5000708;28;20302;-62
2022/03/31 01:26:43;;;;;;;6.85;2.10;;;0.10;99.90;;;;;;5009579;28;20073;-65
2022/03/31 01:29:11;;;;;;;5.67;2.60;;;0.10;99.90;;;;;;5010329;28;20061;-63
2022/03/31 01:31:39;;;;;;;3.00;1.45;;;0.10;99.90;;;;;;5006180;28;20314;-66
2022/03/31 01:34:08;;;;;;;8.45;1.65;;;0.00;99.90;;;;;;5000503;28;20035;-63
2022/03/31 01:36:36;;;;;;;8.20;1.50;;;0.00;99.90;;;;;;4979985;28;20053;-74
2022/03/31 01:39:05;;;;;;;4.80;1.55;;;0.00;99.90;;;;;;5015324;28;20046;-68
2022/03/31 01:41:32;;;;;;;2.83;1.73;;;0.00;99.90;;;;;;5016222;28;20509;-63
2022/03/31 01:44:00;;;;;;;3.40;2.35;;;-0.10;99.90;;;;;;5013679;28;20042;-65
2022/03/31 01:46:29;;;;;;;3.25;1.25;;;-0.10;99.90;;;;;;5012934;28;20489;-68
2022/03/31 01:48:57;;;;;;;2.55;1.25;;;-0.10;99.90;;;;;;5016922;28;20042;-78
2022/03/31 01:51:25;;;;;;;7.35;1.65;;;-0.10;99.90;;;;;;5012212;28;20441;-66
2022/03/31 01:53:53;;;;;;;2.00;1.10;;;-0.10;99.90;;;;;;5011709;28;20049;-66
2022/03/31 01:56:20;;;;;;;1.52;1.40;;;-0.20;99.90;;;;;;5011635;28;20072;-65
2022/03/31 01:58:49;;;;;;;3.55;1.55;;;-0.20;99.90;;;;;;5011127;28;20057;-64
2022/03/31 02:01:17;;;;;;;3.03;1.52;;;-0.20;99.90;;;;;;4994083;28;20370;-63
2022/03/31 02:03:46;;;;;;;3.20;1.10;;;-0.20;99.90;;;;;;5011489;28;20049;-63
2022/03/31 02:06:14;;;;;;;3.90;1.10;;;-0.20;99.90;;;;;;5011198;28;20489;-67
2022/03/31 02:08:42;;;;;;;1.88;1.05;;;-0.20;99.90;;;;;;5011468;28;20042;-64
2022/03/31 02:11:09;;;;;;;1.13;0.98;;;-0.20;99.90;;;;;;5011739;28;20045;-65
2022/03/31 02:13:37;;;;;;;3.65;0.90;;;-0.20;99.90;;;;;;5011267;28;20052;-62
2022/03/31 02:16:05;;;;;;;2.95;1.17;;;-0.30;99.90;;;;;;5011070;28;20061;-63
2022/03/31 02:18:32;;;;;;;4.07;1.08;;;-0.30;99.90;;;;;;5011738;28;20038;-62
2022/03/31 02:21:00;;;;;;;7.50;1.00;;;-0.30;99.90;;;;;;5011501;28;20061;-62
2022/03/31 02:23:28;;;;;;;3.65;1.50;;;-0.40;99.90;;;;;;5011232;28;20049;-64
2022/03/31 02:25:55;;;;;;;4.03;1.20;;;-0.30;99.90;;;;;;5011197;28;20073;-62
2022/03/31 02:28:23;;;;;;;4.32;1.48;;;-0.40;99.90;;;;;;5011378;28;20050;-62
2022/03/31 02:30:51;;;;;;;3.15;1.60;;;-0.40;99.90;;;;;;5011522;28;20046;-62
2022/03/31 02:33:21;;;;;;;6.25;1.70;;;-0.40;99.90;;;;;;5011604;28;20393;-62
2022/03/31 02:35:49;;;;;;;2.72;1.20;;;-0.40;99.90;;;;;;4993299;28;20042;-62
2022/03/31 02:38:16;;;;;;;4.57;1.75;;;-0.40;99.90;;;;;;5011383;28;20046;-61
2022/03/31 02:40:47;;;;;;;9.13;1.92;;;-0.40;99.90;;;;;;5010919;28;20056;-62
2022/03/31 02:43:15;;;;;;;2.15;1.25;;;-0.40;99.90;;;;;;5010848;28;20046;-62
2022/03/31 02:45:43;;;;;;;4.40;1.27;;;-0.50;99.90;;;;;;5010958;28;20046;-62
2022/03/31 02:48:10;;;;;;;6.07;1.42;;;-0.50;99.90;;;;;;5010841;28;20042;-61
2022/03/31 02:50:39;;;;;;;5.95;1.60;;;-0.50;99.90;;;;;;5013134;28;20508;-61
2022/03/31 02:55:53;;;;;;;6.15;1.45;;;-0.60;99.90;;;;;;5014145;28;20049;-63
2022/03/31 02:58:20;;;;;;;3.28;1.35;;;-0.50;99.90;;;;;;5014853;28;20490;-64
2022/03/31 03:00:49;;;;;;;3.45;1.90;;;-0.60;99.90;;;;;;5012992;28;20077;-63
2022/03/31 03:03:17;;;;;;;3.45;1.63;;;-0.60;99.90;;;;;;5014422;28;20045;-64
2022/03/31 03:05:46;;;;;;;5.50;1.95;;;-0.60;99.90;;;;;;5014312;28;20042;-64
2022/03/31 03:08:14;;;;;;;2.78;1.90;;;-0.60;99.90;;;;;;5014751;28;20049;-64
2022/03/31 03:10:42;;;;;;;5.82;2.33;;;-0.60;99.90;;;;;;5000308;28;20046;-65
2022/03/31 03:13:10;;;;;;;6.50;2.05;;;-0.70;99.90;;;;;;5000269;28;20046;-66
2022/03/31 03:15:37;;;;;;;7.47;1.85;;;-0.60;99.90;;;;;;5014691;28;20069;-62
2022/03/31 03:18:05;;;;;;;7.05;1.50;;;-0.70;99.90;;;;;;5014306;28;20474;-65
2022/03/31 03:20:34;;;;;;;5.88;1.75;;;-0.70;99.90;;;;;;5013952;28;20587;-63
2022/03/31 03:23:01;;;;;;;2.25;1.30;;;-0.70;99.90;;;;;;5014435;28;20046;-62
2022/03/31 03:25:29;;;;;;;3.17;1.75;;;-0.70;99.90;;;;;;5014195;28;20399;-63
2022/03/31 03:27:58;;;;;;;3.63;1.63;;;-0.70;99.90;;;;;;4996247;28;20050;-63
2022/03/31 03:30:25;;;;;;;2.55;1.70;;;-0.70;99.90;;;;;;5013915;28;20604;-65
2022/03/31 03:32:53;;;;;;;5.57;1.77;;;-0.70;99.90;;;;;;5014288;28;20061;-62
2022/03/31 03:35:21;;;;;;;2.80;1.83;;;-0.70;99.90;;;;;;5013917;28;20049;-63
2022/03/31 03:37:49;;;;;;;7.53;1.95;;;-0.70;99.90;;;;;;5013503;28;20046;-62
2022/03/31 03:40:16;;;;;;;2.85;1.70;;;-0.70;99.90;;;;;;5013659;28;20508;-66
2022/03/31 03:42:44;;;;;;;5.47;1.85;;;-0.70;99.90;;;;;;5013998;28;20061;-64
2022/03/31 03:45:13;;;;;;;3.00;1.70;;;-0.80;99.90;;;;;;5014207;28;20049;-66
2022/03/31 03:47:43;;;;;;;2.95;1.80;;;-0.80;99.90;;;;;;4996525;28;20061;-64
2022/03/31 03:50:11;;;;;;;4.57;1.95;;;-0.70;99.90;;;;;;4995206;28;20042;-63
2022/03/31 03:52:39;;;;;;;2.80;1.38;;;-0.70;99.90;;;;;;4994203;28;20057;-64
2022/03/31 03:55:08;;;;;;;3.08;1.40;;;-0.70;99.90;;;;;;4976913;28;20053;-65
2022/03/31 03:57:37;;;;;;;4.82;1.83;;;-0.70;99.90;;;;;;4994456;28;20061;-63
2022/03/31 04:00:06;;;;;;;7.10;2.05;;;-0.70;99.90;;;;;;4994174;28;20057;-66
2022/03/31 04:02:33;;;;;;;5.10;2.00;;;-0.70;99.90;;;;;;4994910;28;20077;-64
2022/03/31 04:05:01;;;;;;;3.47;2.17;;;-0.80;99.90;;;;;;5013821;28;20525;-67
2022/03/31 04:07:29;;;;;;;3.70;1.60;;;-0.80;99.90;;;;;;5013369;28;20532;-66
2022/03/31 04:09:57;;;;;;;3.13;1.75;;;-0.80;99.90;;;;;;5012658;28;20405;-64
2022/03/31 04:12:25;;;;;;;5.22;1.90;;;-0.80;99.90;;;;;;5013295;28;20046;-65
2022/03/31 04:14:52;;;;;;;2.33;1.50;;;-0.80;99.90;;;;;;5013346;28;20042;-67
2022/03/31 04:17:21;;;;;;;4.63;1.63;;;-0.80;99.90;;;;;;5013115;28;20409;-63
2022/03/31 04:19:49;;;;;;;9.77;2.00;;;-0.80;99.90;;;;;;5013259;28;20042;-62
2022/03/31 04:22:16;;;;;;;4.60;1.45;;;-0.80;99.90;;;;;;5013369;28;20065;-62
2022/03/31 04:24:44;;;;;;;2.85;1.42;;;-0.80;99.90;;;;;;4995605;28;20069;-64
2022/03/31 04:27:12;;;;;;;3.10;1.40;;;-0.80;99.90;;;;;;4995892;28;20034;-62
2022/03/31 04:29:41;;;;;;;5.38;1.73;;;-0.80;99.90;;;;;;4979994;28;20042;-65
2022/03/31 04:32:09;;;;;;;3.38;1.60;;;-0.80;99.90;;;;;;4997785;28;20050;-62
2022/03/31 04:34:37;;;;;;;2.85;1.63;;;-0.80;99.90;;;;;;5017409;28;20050;-64
2022/03/31 04:37:06;;;;;;;1.58;1.05;;;-0.80;99.90;;;;;;5013335;28;20642;-62
2022/03/31 04:39:33;;;;;;;4.30;1.58;;;-0.80;99.90;;;;;;5012686;28;20038;-62
2022/03/31 04:42:02;;;;;;;3.33;1.90;;;-0.70;99.90;;;;;;5012917;28;20049;-65
2022/03/31 04:44:34;;;;;;;4.85;1.30;;;-0.70;99.90;;;;;;5013038;28;20046;-64
2022/03/31 04:47:02;;;;;;;6.35;1.83;;;-0.80;99.90;;;;;;5008779;28;20046;-62
2022/03/31 04:49:29;;;;;;;8.02;1.77;;;-0.80;99.90;;;;;;5004379;28;20049;-63
2022/03/31 04:51:57;;;;;;;1.45;1.02;;;-0.80;99.90;;;;;;4989835;28;20047;-63
2022/03/31 04:54:25;;;;;;;3.05;1.55;;;-0.80;99.90;;;;;;4994500;28;20512;-63
2022/03/31 04:56:53;;;;;;;2.50;1.70;;;-0.80;99.90;;;;;;4991231;28;20046;-62
2022/03/31 04:59:20;;;;;;;2.30;1.35;;;-0.80;99.90;;;;;;5009295;28;20050;-63
2022/03/31 05:01:48;;;;;;;4.18;1.60;;;-0.90;99.90;;;;;;5006000;28;20061;-62
2022/03/31 05:04:16;;;;;;;4.13;1.65;;;-0.90;99.90;;;;;;4997512;28;20050;-63
2022/03/31 05:06:44;;;;;;;2.95;1.65;;;-0.90;99.90;;;;;;5009513;28;20405;-63
2022/03/31 05:09:12;;;;;;;2.40;1.40;;;-0.90;99.90;;;;;;4997966;28;20060;-61
2022/03/31 05:11:39;;;;;;;2.88;1.45;;;-0.90;99.90;;;;;;5000024;28;20080;-62
2022/03/31 05:14:07;;;;;;;2.35;1.20;;;-0.60;99.90;;;;;;4988512;28;20405;-65
2022/03/31 05:16:35;;;;;;;3.25;1.60;;;-0.90;99.90;;;;;;5011830;28;20050;-63
2022/03/31 05:19:03;;;;;;;2.13;1.17;;;-0.90;99.90;;;;;;5008425;28;20049;-63
2022/03/31 05:21:30;;;;;;;2.75;1.40;;;-0.90;99.90;;;;;;4990444;28;20042;-62
2022/03/31 05:23:58;;;;;;;4.75;1.25;;;-0.90;99.90;;;;;;5006967;28;20446;-63
2022/03/31 05:26:26;;;;;;;1.70;1.27;;;-0.90;99.90;;;;;;5006857;28;20038;-62
2022/03/31 05:28:54;;;;;;;1.98;1.08;;;-0.90;99.90;;;;;;4988263;28;20050;-63
2022/03/31 05:31:21;;;;;;;5.45;1.10;;;-0.90;99.90;;;;;;5006968;28;20042;-62
2022/03/31 05:33:49;;;;;;;1.50;1.20;;;-0.90;99.90;;;;;;5007141;28;20417;-61
2022/03/31 05:36:18;;;;;;;2.83;1.55;;;-0.90;99.90;;;;;;5009110;28;20045;-61
2022/03/31 05:38:47;;;;;;;2.13;1.27;;;-0.80;99.90;;;;;;5008636;28;20046;-62
2022/03/31 05:41:14;;;;;;;3.10;1.25;;;-0.80;99.90;;;;;;4990178;28;20084;-62
2022/03/31 05:43:42;;;;;;;3.17;1.20;;;-0.70;99.90;;;;;;5008005;28;20068;-61
2022/03/31 05:46:10;;;;;;;1.58;1.23;;;-0.70;99.90;;;;;;5008683;28;20057;-61
2022/03/31 05:48:37;;;;;;;4.68;1.35;;;-0.60;99.90;;;;;;5007969;28;20516;-64
2022/03/31 05:51:07;;;;;;;3.08;1.35;;;-0.50;99.90;;;;;;5007572;28;20362;-63
2022/03/31 05:53:34;;;;;;;;;;;-0.60;99.90;;;;;;4990168;28;20054;-63
2022/03/31 05:56:02;;;;;;;1.75;1.13;;;-0.60;99.90;;;;;;5012872;28;19922;-62
2022/03/31 05:58:30;;;;;;;2.53;1.10;;;-0.60;99.90;;;;;;5008942;28;20038;-63
2022/03/31 06:00:58;;;;;;;2.08;1.23;;;-0.60;99.90;;;;;;4989015;28;20061;-63
2022/03/31 06:03:26;;;;;;;6.47;1.10;;;-0.70;99.90;;;;;;5008209;28;20048;-62
2022/03/31 06:05:54;;;;;;;1.77;1.10;;;-0.80;99.90;;;;;;5008826;28;20054;-62
2022/03/31 06:08:23;;;;;;;2.80;1.15;;;-0.80;99.90;;;;;;4989080;28;20046;-62
2022/03/31 06:10:51;;;;;;;2.63;1.17;;;-0.80;99.90;;;;;;5008749;28;20374;-62
2022/03/31 06:13:18;;;;;;;2.53;1.10;;;-0.80;99.90;;;;;;5003185;28;20042;-62
2022/03/31 06:15:46;;;;;;;6.32;2.10;;;-0.80;99.90;;;;;;4996913;28;20051;-63
2022/03/31 06:18:13;;;;;;;3.17;1.17;;;-0.80;99.90;;;;;;5007818;28;20047;-62
2022/03/31 06:20:44;;;;;;;5.45;1.48;;;-0.80;99.90;;;;;;5003760;28;20050;-62
2022/03/31 06:23:11;;;;;;;3.03;1.23;;;-0.80;99.90;;;;;;4996873;28;20062;-61
2022/03/31 06:25:44;;;;;;;6.90;1.60;;;-0.80;99.90;;;;;;5003401;28;20045;-62
2022/03/31 06:28:14;;;;;;;6.15;1.40;;;-0.70;99.90;;;;;;5009433;28;20049;-62
2022/03/31 06:30:47;;;;;;;1.88;1.23;;;-0.70;99.90;;;;;;4995133;28;20393;-62
2022/03/31 06:33:17;;;;;;;2.25;1.30;;;-0.70;99.90;;;;;;5007403;28;20054;-62
2022/03/31 06:35:45;;;;;;;2.50;1.70;;;-0.70;99.90;;;;;;5008877;28;20053;-62
2022/03/31 06:38:13;;;;;;;3.72;1.50;;;-0.70;99.90;;;;;;5003225;28;20053;-61
2022/03/31 06:40:41;;;;;;;4.65;1.73;;;-0.60;99.90;;;;;;5010213;28;20046;-62
2022/03/31 06:43:09;;;;;;;1.73;1.27;;;-0.60;99.90;;;;;;5009577;28;20064;-61
2022/03/31 06:45:37;;;;;;;3.50;1.08;;;-0.60;99.90;;;;;;5007651;28;20073;-63
2022/03/31 06:48:06;;;;;;;2.78;1.50;;;-0.50;99.90;;;;;;5007728;28;20050;-63
2022/03/31 06:50:34;;;;;;;4.10;1.58;;;-0.60;99.90;;;;;;5008704;28;20401;-67
2022/03/31 06:53:02;;;;;;;5.45;1.42;;;-0.50;99.90;;;;;;4993285;28;20069;-62
2022/03/31 06:55:30;;;;;;;2.15;1.20;;;-0.50;99.90;;;;;;5007377;28;20052;-65
2022/03/31 06:57:58;;;;;;;3.40;1.65;;;-0.40;99.90;;;;;;5008383;28;20053;-63
2022/03/31 07:00:26;;;;;;;4.78;1.88;;;-0.40;99.90;;;;;;5008399;28;20393;-65
2022/03/31 07:02:54;;;;;;;3.50;1.30;;;-0.30;99.90;;;;;;5004313;28;20398;-64
2022/03/31 07:05:22;;;;;;;2.20;1.25;;;-0.30;99.90;;;;;;5008360;28;20050;-61
2022/03/31 07:07:49;;;;;;;2.13;1.27;;;-0.20;99.90;;;;;;5003352;28;20050;-63
2022/03/31 07:10:17;;;;;;;8.63;1.30;;;-0.10;99.90;;;;;;4993330;28;20046;-64
2022/03/31 07:12:45;;;;;;;1.98;1.42;;;-0.10;99.90;;;;;;4976169;28;20043;-65
2022/03/31 07:15:12;;;;;;;5.10;1.60;;;0.00;99.90;;;;;;5010639;28;20057;-62
2022/03/31 07:17:40;;;;;;;1.73;1.20;;;0.00;99.90;;;;;;5011809;28;20045;-63
2022/03/31 07:20:09;;;;;;;8.52;1.77;;;0.10;99.90;;;;;;4999113;28;20042;-62
2022/03/31 07:22:47;;;;;;;8.35;1.80;;;0.20;99.90;;;;;;5002409;28;20046;-63
2022/03/31 07:25:16;;;;;;;3.95;1.10;;;0.20;99.90;;;;;;4993494;28;20049;-63
2022/03/31 07:27:44;;;;;;;3.88;1.55;;;0.30;99.90;;;;;;5004671;28;20052;-63
2022/03/31 07:30:13;;;;;;;5.15;1.55;;;0.30;99.90;;;;;;5010358;28;20046;-62
2022/03/31 07:32:56;;;;;;;3.95;1.58;;;0.40;99.90;;;;;;5006443;28;20033;-61
2022/03/31 07:35:27;;;;;;;2.88;1.30;;;0.50;99.90;;;;;;5006838;28;20046;-62
2022/03/31 07:37:56;;;;;;;5.18;1.67;;;0.50;99.90;;;;;;4998391;28;20061;-62
2022/03/31 07:40:25;;;;;;;4.40;1.60;;;0.60;99.90;;;;;;4960331;28;20062;-62
2022/03/31 07:42:53;;;;;;;2.95;1.35;;;0.60;99.90;;;;;;4982776;28;20061;-62
2022/03/31 07:45:21;;;;;;;4.38;1.45;;;0.70;99.90;;;;;;5010038;28;20405;-62
2022/03/31 07:47:50;;;;;;;1.63;1.10;;;0.80;99.90;;;;;;4992935;28;20054;-62
2022/03/31 07:50:19;;;;;;;2.53;1.30;;;0.90;99.90;;;;;;5009181;28;20038;-62
2022/03/31 07:52:46;;;;;;;1.60;1.30;;;1.00;99.90;;;;;;5010293;28;20052;-63
2022/03/31 07:55:16;;;;;;;2.78;1.58;;;1.10;99.90;;;;;;4997949;28;20069;-65
2022/03/31 07:57:44;;;;;;;6.47;2.10;;;1.20;99.90;;;;;;4980096;28;20042;-63
2022/03/31 08:00:14;;;;;;;2.93;1.57;;;1.30;99.90;;;;;;4990924;28;20050;-67
2022/03/31 08:02:43;;;;;;;3.47;1.20;;;1.30;99.90;;;;;;4991735;28;20042;-66
2022/03/31 08:05:14;;;;;;;3.83;0.95;;;1.40;99.90;;;;;;4990613;28;20073;-62
2022/03/31 08:07:42;;;;;;;2.13;1.10;;;1.50;99.90;;;;;;4997212;28;20489;-62
2022/03/31 08:10:10;;;;;;;6.35;1.40;;;1.60;99.90;;;;;;5010370;28;20049;-62
2022/03/31 08:12:40;;;;;;;3.13;1.40;;;1.70;99.90;;;;;;5001714;28;20490;-62
2022/03/31 08:15:09;;;;;;;2.97;1.38;;;1.80;99.90;;;;;;5008513;28;20504;-65
2022/03/31 08:17:38;;;;;;;4.22;1.58;;;1.90;99.90;;;;;;4992043;28;20045;-64
2022/03/31 08:20:08;;;;;;;5.00;1.20;;;2.00;99.90;;;;;;4991990;28;20050;-63
2022/03/31 08:22:38;;;;;;;1.20;1.10;;;2.10;99.90;;;;;;4976723;28;20049;-62
2022/03/31 08:25:08;;;;;;;4.20;1.40;;;2.20;99.90;;;;;;5009933;28;20060;-62
2022/03/31 08:27:38;;;;;;;2.30;1.30;;;2.20;99.90;;;;;;5007723;28;20393;-66
2022/03/31 08:30:10;;;;;;;2.65;0.98;;;2.30;99.90;;;;;;5009697;28;20053;-64
2022/03/31 08:32:39;;;;;;;1.65;0.98;;;2.40;99.90;;;;;;5011041;28;20042;-67
2022/03/31 08:35:08;;;;;;;3.85;1.05;;;2.40;99.90;;;;;;5010962;28;20046;-63
2022/03/31 08:37:37;;;;;;;1.33;0.60;;;2.40;99.90;;;;;;4998399;28;20050;-62
2022/03/31 08:40:07;;;;;;;0.70;0.60;;;2.40;99.90;;;;;;5012943;28;20065;-64
2022/03/31 08:42:35;;;;;;;2.83;0.70;;;2.30;99.90;;;;;;5005515;28;20307;-62
2022/03/31 08:45:04;;;;;;;2.20;0.63;;;2.20;99.90;;;;;;4993029;28;20046;-65
2022/03/31 08:47:33;;;;;;;1.20;0.57;;;2.20;99.90;;;;;;4996588;28;20064;-62
2022/03/31 08:50:20;;;;;;;2.30;0.50;;;2.30;99.90;;;;;;5002555;28;20054;-64
2022/03/31 08:52:49;;;;;;;0.77;0.60;;;2.40;99.90;;;;;;5008242;28;20050;-62
2022/03/31 08:55:18;;;;;;;2.92;0.43;;;2.40;99.90;;;;;;5007154;28;20042;-63
2022/03/31 08:57:52;;;;;;;1.17;0.50;;;2.50;99.90;;;;;;4986854;28;20053;-63
2022/03/31 09:00:21;;;;;;;2.47;0.60;;;2.50;99.90;;;;;;5006404;28;20054;-63
2022/03/31 09:03:01;;;;;;;2.63;0.90;;;2.60;99.90;;;;;;5008660;28;20054;-66
2022/03/31 09:05:41;;;;;;;1.90;0.60;;;2.70;99.90;;;;;;4991788;28;20041;-65
2022/03/31 09:08:13;;;;;;;4.40;0.73;;;2.90;99.90;;;;;;5008257;28;20049;-63
2022/03/31 09:10:44;;;;;;;2.13;0.43;;;3.10;99.90;;;;;;5008203;28;20057;-66
2022/03/31 09:13:22;;;;;;;0.75;0.60;;;3.30;99.90;;;;;;4973337;28;20053;-66
2022/03/31 09:16:01;;;;;;;2.30;0.50;;;3.50;99.90;;;;;;5008845;28;20049;-66
2022/03/31 09:18:31;;;;;;;3.00;0.52;;;3.60;99.90;;;;;;5008491;28;20058;-64
2022/03/31 09:21:08;;;;;;;6.03;0.88;;;3.70;99.90;;;;;;5007869;28;20049;-65
2022/03/31 09:23:41;;;;;;;1.98;0.50;;;3.80;99.90;;;;;;5004615;28;20050;-63
2022/03/31 09:26:12;;;;;;;2.45;0.50;;;3.90;99.90;;;;;;5004884;28;20042;-63
2022/03/31 09:28:41;;;;;;;14.63;0.80;;;4.00;99.90;;;;;;4987345;28;20049;-64
2022/03/31 09:31:10;;;;;;;4.25;0.60;;;4.10;99.90;;;;;;5005218;28;20046;-67
2022/03/31 09:33:40;;;;;;;4.68;0.40;;;4.40;99.90;;;;;;5004841;28;20061;-64
2022/03/31 09:36:13;;;;;;;0.40;0.40;;;4.50;99.90;;;;;;4988928;28;20037;-62
2022/03/31 09:38:50;;;;;;;2.38;0.52;;;4.70;99.90;;;;;;5008132;28;20053;-64
2022/03/31 09:41:23;;;;;;;2.13;0.60;;;4.70;99.90;;;;;;5008000;28;20038;-66
2022/03/31 09:43:53;;;;;;;4.15;0.47;;;4.70;99.90;;;;;;5002956;28;20506;-64
2022/03/31 09:46:29;;;;;;;4.13;0.70;;;4.60;99.90;;;;;;5003120;28;20065;-66
2022/03/31 09:49:21;;;;;;;1.38;0.82;;;4.80;99.90;;;;;;4989695;28;20041;-66
2022/03/31 09:51:53;;;;;;;5.85;0.93;;;4.90;99.90;;;;;;4990740;28;20077;-67
2022/03/31 09:54:23;;;;;;;2.75;1.10;;;5.20;99.90;;;;;;4990832;28;20058;-67
2022/03/31 09:56:51;;;;;;;3.97;0.90;;;5.50;99.90;;;;;;5008145;28;20053;-67
2022/03/31 09:59:20;;;;;;;3.40;1.27;;;5.60;99.90;;;;;;5007326;28;20042;-67
2022/03/31 10:01:52;;;;;;;3.90;0.52;;;5.80;99.90;;;;;;5011034;28;20453;-66
2022/03/31 10:04:21;;;;;;;1.55;0.50;;;5.90;99.90;;;;;;5010945;28;20366;-62
2022/03/31 10:06:55;;;;;;;3.90;0.80;;;6.10;99.90;;;;;;5012681;28;20053;-63
2022/03/31 10:09:23;;;;;;;9.43;1.05;;;6.30;99.90;;;;;;5014685;28;20046;-63
2022/03/31 10:12:07;;;;;;;4.90;0.60;;;6.40;99.90;;;;;;5013472;28;20054;-64
2022/03/31 10:14:43;;;;;;;2.30;0.70;;;6.50;99.90;;;;;;5011685;28;20133;-61
2022/03/31 10:17:11;;;;;;;2.22;0.57;;;6.70;99.90;;;;;;5014038;28;20050;-61
2022/03/31 10:19:44;;;;;;;4.97;0.70;;;6.90;99.90;;;;;;5014447;28;20409;-62
2022/03/31 10:25:07;;;;;;;4.15;0.82;;;7.10;99.90;;;;;;4995989;28;20050;-62
2022/03/31 10:27:48;;;;;;;4.57;0.52;;;7.20;99.90;;;;;;5013227;28;20057;-62
2022/03/31 10:30:25;;;;;;;4.35;0.68;;;7.10;99.90;;;;;;5014257;28;20049;-61
2022/03/31 10:32:58;;;;;;;5.68;0.77;;;7.00;99.90;;;;;;5010762;28;20057;-62
2022/03/31 10:35:37;;;;;;;2.38;0.40;;;7.00;99.90;;;;;;5013611;28;20048;-62
2022/03/31 10:38:11;;;;;;;3.40;0.40;;;7.00;99.90;;;;;;4996323;28;20042;-61
2022/03/31 10:40:42;;;;;;;3.80;0.80;;;7.10;99.90;;;;;;5014063;28;20041;-61
2022/03/31 10:43:22;;;;;;;5.38;0.80;;;7.10;99.90;;;;;;5010915;28;20046;-61
2022/03/31 10:45:54;;;;;;;1.50;0.35;;;7.20;99.90;;;;;;4994325;28;20050;-61
2022/03/31 10:48:25;;;;;;;3.08;0.40;;;7.10;99.90;;;;;;4993663;28;20057;-61
2022/03/31 10:51:11;;;;;;;3.53;1.02;;;7.00;99.90;;;;;;4976643;28;20046;-61
2022/03/31 10:53:44;;;;;;;4.47;0.50;;;6.90;99.90;;;;;;4994271;28;20046;-62
2022/03/31 10:56:23;;;;;;;2.97;0.63;;;6.60;99.90;;;;;;4994231;28;20050;-61
2022/03/31 10:58:53;;;;;;;2.22;0.40;;;6.40;99.90;;;;;;4991048;28;20061;-61
2022/03/31 11:01:23;;;;;;;1.27;0.60;;;6.30;99.90;;;;;;4992573;28;20038;-62
2022/03/31 11:03:51;;;;;;;4.35;0.70;;;6.20;99.90;;;;;;4991070;28;20524;-61
2022/03/31 11:06:19;;;;;;;3.38;1.42;;;6.20;99.90;;;;;;4992823;28;20421;-62
2022/03/31 11:08:48;;;;;;;3.90;0.70;;;6.30;99.90;;;;;;4993142;28;20050;-62
2022/03/31 11:11:19;;;;;;;3.13;0.65;;;6.30;99.90;;;;;;4993107;28;20051;-61
2022/03/31 11:13:48;;;;;;;2.90;1.30;;;6.30;99.90;;;;;;4989452;28;20049;-63
2022/03/31 11:16:16;;;;;;;2.63;0.47;;;6.20;99.90;;;;;;4990477;28;20081;-63
2022/03/31 11:18:54;;;;;;;1.80;0.47;;;6.30;99.90;;;;;;4990758;28;20073;-63
2022/03/31 11:21:23;;;;;;;2.65;0.30;;;6.50;99.90;;;;;;4991206;28;20058;-62
2022/03/31 11:23:53;;;;;;;1.77;0.40;;;6.80;99.90;;;;;;4990765;28;20057;-63
2022/03/31 11:26:29;;;;;;;2.25;0.40;;;7.10;99.90;;;;;;4990765;28;20053;-62
2022/03/31 11:28:59;;;;;;;3.70;0.60;;;7.50;99.90;;;;;;4980811;28;20047;-62
2022/03/31 11:31:27;;;;;;;0.85;0.60;;;7.90;98.60;;;;;;4972047;28;20419;-61
2022/03/31 11:33:58;;;;;;;2.72;0.77;;;8.10;98.10;;;;;;4981135;28;20046;-61
2022/03/31 11:36:37;;;;;;;1.17;0.50;;;8.00;97.20;;;;;;4991089;28;20050;-61
2022/03/31 11:39:05;;;;;;;1.90;0.60;;;7.80;96.90;;;;;;4990378;28;20600;-62
2022/03/31 11:41:40;;;;;;;1.33;0.73;;;7.40;96.90;;;;;;4990008;28;20503;-64
2022/03/31 11:44:31;;;;;;;1.75;0.90;;;7.40;99.10;;;;;;4988220;28;20057;-63
2022/03/31 11:46:58;;;;;;;1.60;0.32;;;7.70;97.90;;;;;;4998285;28;20061;-62
2022/03/31 11:49:27;;;;;;;1.73;0.57;;;8.10;98.80;;;;;;5009118;28;20484;-64
2022/03/31 11:51:58;;;;;;;2.25;0.52;;;8.60;95.50;;;;;;5009790;28;20053;-62
2022/03/31 11:54:27;;;;;;;0.63;0.40;;;9.10;93.30;;;;;;4991452;28;20060;-62
2022/03/31 11:57:07;;;;;;;2.08;0.40;;;9.20;88.40;;;;;;5009154;28;20054;-61
2022/03/31 11:59:36;;;;;;;1.58;0.30;;;9.30;90.30;;;;;;5006499;28;20038;-61
2022/03/31 12:02:15;;;;;;;1.33;0.38;;;9.50;85.70;;;;;;5010441;28;20046;-60
2022/03/31 12:04:44;;;;;;;0.68;0.40;;;9.50;82.70;;;;;;5010046;28;20052;-62
2022/03/31 12:07:13;;;;;;;5.03;0.47;;;9.30;81.40;;;;;;5008200;28;20042;-62
2022/03/31 12:09:42;;;;;;;1.40;0.50;;;9.00;82.80;;;;;;5010156;28;20393;-64
2022/03/31 12:12:11;;;;;;;4.95;0.50;;;9.10;86.20;;;;;;5009517;28;20054;-63
2022/03/31 12:14:39;;;;;;;7.80;2.17;;;9.20;80.80;;;;;;5008794;28;20038;-62
2022/03/31 12:17:12;;;;;;;1.52;0.77;;;9.20;78.00;;;;;;4992152;28;20046;-63
2022/03/31 12:19:41;;;;;;;0.80;0.32;;;9.30;81.90;;;;;;4991840;28;20050;-62
2022/03/31 12:22:09;;;;;;;1.30;0.50;;;9.60;80.70;;;;;;4991813;28;20041;-60
2022/03/31 12:24:51;;;;;;;2.03;0.50;;;9.70;77.30;;;;;;5009059;28;20041;-63
2022/03/31 12:27:20;;;;;;;1.70;0.57;;;9.50;77.70;;;;;;4992135;28;20061;-62
2022/03/31 12:29:59;;;;;;;2.55;0.60;;;9.20;77.00;;;;;;4998833;28;20050;-62
2022/03/31 12:32:33;;;;;;;1.77;0.35;;;8.60;79.10;;;;;;4999026;28;20042;-62
2022/03/31 12:35:01;;;;;;;2.72;0.50;;;8.20;82.80;;;;;;5009337;28;20045;-61
2022/03/31 12:37:32;;;;;;;3.25;0.50;;;7.90;89.20;;;;;;5006787;28;20053;-64
2022/03/31 12:40:04;;;;;;;1.50;0.40;;;7.90;93.70;;;;;;5004352;28;20056;-64
2022/03/31 12:42:33;;;;;;;4.05;0.77;;;8.20;96.00;;;;;;5000933;28;20049;-64
2022/03/31 12:45:14;;;;;;;1.88;0.50;;;8.80;96.70;;;;;;5002404;28;20049;-64
2022/03/31 12:47:43;;;;;;;3.65;0.70;;;9.20;92.60;;;;;;4998082;28;20049;-62
2022/03/31 12:50:27;;;;;;;1.42;0.50;;;9.60;90.00;;;;;;5005086;28;20065;-61
2022/03/31 12:53:00;;;;;;;2.25;0.80;;;10.10;87.90;;;;;;5004720;28;20061;-61
2022/03/31 12:55:30;;;;;;;2.92;0.73;;;10.60;90.00;;;;;;4990371;28;20042;-62
2022/03/31 12:57:59;;;;;;;1.85;0.50;;;11.20;86.20;;;;;;4998072;28;20505;-62
2022/03/31 13:00:29;;;;;;;2.72;0.68;;;11.60;80.00;;;;;;5008667;28;20045;-61
2022/03/31 13:02:57;;;;;;;0.95;0.70;;;11.90;74.10;;;;;;4974608;28;20046;-61
2022/03/31 13:05:26;;;;;;;2.28;0.35;;;12.40;74.90;;;;;;5004799;28;20049;-61
2022/03/31 13:07:55;;;;;;;2.00;0.52;;;12.70;59.50;;;;;;4997128;28;20054;-62
2022/03/31 13:10:25;;;;;;;2.88;0.70;;;12.90;59.70;;;;;;4993182;28;20044;-66
2022/03/31 13:12:53;;;;;;;2.97;0.50;;;13.10;60.40;;;;;;5007368;28;20046;-62